sensor_id;sensor_type;location;lat;lon;timestamp;P1;durP1;ratioP1;P2;durP2;ratioP2
68188;SDS011;66299;47.514;19.218;2023-07-16T00:01:56;13.43;;;6.25;;
68188;SDS011;66299;47.514;19.218;2023-07-16T00:04:24;14.23;;;6.40;;
68188;SDS011;66299;47.514;19.218;2023-07-16T00:06:54;13.40;;;6.32;;
68188;SDS011;66299;47.514;19.218;2023-07-16T00:09:22;11.73;;;5.70;;
68188;SDS011;66299;47.514;19.218;2023-07-16T00:11:52;13.18;;;5.80;;
68188;SDS011;66299;47.514;19.218;2023-07-16T00:14:26;17.20;;;6.20;;
68188;SDS011;66299;47.514;19.218;2023-07-16T00:16:59;16.42;;;6.22;;
68188;SDS011;66299;47.514;19.218;2023-07-16T00:19:28;15.05;;;5.63;;
68188;SDS011;66299;47.514;19.218;2023-07-16T00:22:01;14.50;;;5.50;;
68188;SDS011;66299;47.514;19.218;2023-07-16T00:24:32;12.90;;;5.72;;
68188;SDS011;66299;47.514;19.218;2023-07-16T00:27:05;12.30;;;5.70;;
68188;SDS011;66299;47.514;19.218;2023-07-16T00:29:35;16.00;;;6.03;;
68188;SDS011;66299;47.514;19.218;2023-07-16T00:32:06;15.07;;;5.70;;
68188;SDS011;66299;47.514;19.218;2023-07-16T00:34:40;11.95;;;5.90;;
68188;SDS011;66299;47.514;19.218;2023-07-16T00:37:11;14.05;;;5.60;;
68188;SDS011;66299;47.514;19.218;2023-07-16T00:39:41;14.68;;;5.72;;
68188;SDS011;66299;47.514;19.218;2023-07-16T00:42:11;12.13;;;5.95;;
68188;SDS011;66299;47.514;19.218;2023-07-16T00:44:41;16.27;;;5.80;;
68188;SDS011;66299;47.514;19.218;2023-07-16T00:47:12;14.13;;;6.00;;
68188;SDS011;66299;47.514;19.218;2023-07-16T00:49:40;12.82;;;6.03;;
68188;SDS011;66299;47.514;19.218;2023-07-16T00:52:11;15.63;;;6.10;;
68188;SDS011;66299;47.514;19.218;2023-07-16T00:54:44;12.63;;;5.68;;
68188;SDS011;66299;47.514;19.218;2023-07-16T00:57:13;16.60;;;6.60;;
68188;SDS011;66299;47.514;19.218;2023-07-16T00:59:44;12.70;;;6.45;;
68188;SDS011;66299;47.514;19.218;2023-07-16T01:02:14;12.15;;;6.55;;
68188;SDS011;66299;47.514;19.218;2023-07-16T01:04:45;12.80;;;6.53;;
68188;SDS011;66299;47.514;19.218;2023-07-16T01:07:14;14.00;;;7.13;;
68188;SDS011;66299;47.514;19.218;2023-07-16T01:09:48;13.60;;;7.05;;
68188;SDS011;66299;47.514;19.218;2023-07-16T01:12:22;15.30;;;6.65;;
68188;SDS011;66299;47.514;19.218;2023-07-16T01:14:53;15.88;;;6.53;;
68188;SDS011;66299;47.514;19.218;2023-07-16T01:17:29;13.38;;;6.40;;
68188;SDS011;66299;47.514;19.218;2023-07-16T01:19:57;15.15;;;7.00;;
68188;SDS011;66299;47.514;19.218;2023-07-16T01:22:27;13.73;;;7.18;;
68188;SDS011;66299;47.514;19.218;2023-07-16T01:25:17;14.45;;;6.63;;
68188;SDS011;66299;47.514;19.218;2023-07-16T01:28:05;15.20;;;6.95;;
68188;SDS011;66299;47.514;19.218;2023-07-16T01:30:53;13.20;;;6.75;;
68188;SDS011;66299;47.514;19.218;2023-07-16T01:33:25;13.30;;;7.05;;
68188;SDS011;66299;47.514;19.218;2023-07-16T01:35:57;18.27;;;6.90;;
68188;SDS011;66299;47.514;19.218;2023-07-16T01:38:27;18.38;;;7.25;;
68188;SDS011;66299;47.514;19.218;2023-07-16T01:40:56;14.73;;;6.95;;
68188;SDS011;66299;47.514;19.218;2023-07-16T01:43:28;15.20;;;7.35;;
68188;SDS011;66299;47.514;19.218;2023-07-16T01:46:01;18.48;;;7.22;;
68188;SDS011;66299;47.514;19.218;2023-07-16T01:48:45;14.27;;;6.85;;
68188;SDS011;66299;47.514;19.218;2023-07-16T01:51:19;15.43;;;6.75;;
68188;SDS011;66299;47.514;19.218;2023-07-16T01:53:49;16.00;;;7.03;;
68188;SDS011;66299;47.514;19.218;2023-07-16T01:56:17;18.85;;;7.03;;
68188;SDS011;66299;47.514;19.218;2023-07-16T01:58:48;13.73;;;6.90;;
68188;SDS011;66299;47.514;19.218;2023-07-16T02:01:22;15.57;;;6.88;;
68188;SDS011;66299;47.514;19.218;2023-07-16T02:03:51;17.05;;;6.63;;
68188;SDS011;66299;47.514;19.218;2023-07-16T02:06:20;12.80;;;6.80;;
68188;SDS011;66299;47.514;19.218;2023-07-16T02:08:51;12.90;;;7.05;;
68188;SDS011;66299;47.514;19.218;2023-07-16T02:11:19;16.40;;;7.38;;
68188;SDS011;66299;47.514;19.218;2023-07-16T02:13:49;13.90;;;6.90;;
68188;SDS011;66299;47.514;19.218;2023-07-16T02:16:23;15.43;;;6.90;;
68188;SDS011;66299;47.514;19.218;2023-07-16T02:18:52;13.93;;;6.90;;
68188;SDS011;66299;47.514;19.218;2023-07-16T02:21:24;15.55;;;6.82;;
68188;SDS011;66299;47.514;19.218;2023-07-16T02:23:54;14.07;;;7.00;;
68188;SDS011;66299;47.514;19.218;2023-07-16T02:26:23;15.10;;;6.70;;
68188;SDS011;66299;47.514;19.218;2023-07-16T02:28:55;15.18;;;7.07;;
68188;SDS011;66299;47.514;19.218;2023-07-16T02:31:28;16.13;;;7.60;;
68188;SDS011;66299;47.514;19.218;2023-07-16T02:33:57;16.92;;;7.07;;
68188;SDS011;66299;47.514;19.218;2023-07-16T02:36:25;13.52;;;7.22;;
68188;SDS011;66299;47.514;19.218;2023-07-16T02:38:57;12.90;;;6.85;;
68188;SDS011;66299;47.514;19.218;2023-07-16T02:44:03;15.95;;;7.78;;
68188;SDS011;66299;47.514;19.218;2023-07-16T02:46:46;14.32;;;7.50;;
68188;SDS011;66299;47.514;19.218;2023-07-16T02:49:16;13.52;;;7.60;;
68188;SDS011;66299;47.514;19.218;2023-07-16T02:51:45;13.40;;;7.80;;
68188;SDS011;66299;47.514;19.218;2023-07-16T02:54:13;13.00;;;7.32;;
68188;SDS011;66299;47.514;19.218;2023-07-16T02:56:42;15.60;;;8.13;;
68188;SDS011;66299;47.514;19.218;2023-07-16T02:59:12;14.55;;;8.73;;
68188;SDS011;66299;47.514;19.218;2023-07-16T03:01:46;12.95;;;7.82;;
68188;SDS011;66299;47.514;19.218;2023-07-16T03:04:16;15.52;;;8.27;;
68188;SDS011;66299;47.514;19.218;2023-07-16T03:06:44;13.57;;;7.78;;
68188;SDS011;66299;47.514;19.218;2023-07-16T03:09:13;15.75;;;7.70;;
68188;SDS011;66299;47.514;19.218;2023-07-16T03:11:43;14.05;;;7.80;;
68188;SDS011;66299;47.514;19.218;2023-07-16T03:14:15;14.43;;;7.88;;
68188;SDS011;66299;47.514;19.218;2023-07-16T03:16:46;12.68;;;7.38;;
68188;SDS011;66299;47.514;19.218;2023-07-16T03:19:15;14.40;;;7.60;;
68188;SDS011;66299;47.514;19.218;2023-07-16T03:21:46;15.90;;;7.97;;
68188;SDS011;66299;47.514;19.218;2023-07-16T03:24:17;17.17;;;8.27;;
68188;SDS011;66299;47.514;19.218;2023-07-16T03:26:46;17.02;;;7.35;;
68188;SDS011;66299;47.514;19.218;2023-07-16T03:29:20;13.63;;;7.70;;
68188;SDS011;66299;47.514;19.218;2023-07-16T03:31:55;13.13;;;7.30;;
68188;SDS011;66299;47.514;19.218;2023-07-16T03:34:24;16.77;;;7.07;;
68188;SDS011;66299;47.514;19.218;2023-07-16T03:36:55;12.75;;;7.10;;
68188;SDS011;66299;47.514;19.218;2023-07-16T03:39:25;13.00;;;7.40;;
68188;SDS011;66299;47.514;19.218;2023-07-16T03:41:54;16.02;;;7.35;;
68188;SDS011;66299;47.514;19.218;2023-07-16T03:44:31;17.08;;;7.10;;
68188;SDS011;66299;47.514;19.218;2023-07-16T03:47:03;16.25;;;7.47;;
68188;SDS011;66299;47.514;19.218;2023-07-16T03:49:32;16.02;;;7.30;;
68188;SDS011;66299;47.514;19.218;2023-07-16T03:52:00;13.18;;;7.57;;
68188;SDS011;66299;47.514;19.218;2023-07-16T03:54:33;12.50;;;7.55;;
68188;SDS011;66299;47.514;19.218;2023-07-16T03:57:02;14.32;;;7.00;;
68188;SDS011;66299;47.514;19.218;2023-07-16T03:59:31;15.00;;;7.32;;
68188;SDS011;66299;47.514;19.218;2023-07-16T04:02:05;12.80;;;7.30;;
68188;SDS011;66299;47.514;19.218;2023-07-16T04:04:38;20.60;;;6.97;;
68188;SDS011;66299;47.514;19.218;2023-07-16T04:07:09;18.57;;;7.30;;
68188;SDS011;66299;47.514;19.218;2023-07-16T04:09:39;12.88;;;6.80;;
68188;SDS011;66299;47.514;19.218;2023-07-16T04:12:11;14.82;;;7.32;;
68188;SDS011;66299;47.514;19.218;2023-07-16T04:14:39;15.90;;;8.07;;
68188;SDS011;66299;47.514;19.218;2023-07-16T04:17:10;15.40;;;7.65;;
68188;SDS011;66299;47.514;19.218;2023-07-16T04:19:40;17.83;;;6.82;;
68188;SDS011;66299;47.514;19.218;2023-07-16T04:22:09;12.20;;;6.50;;
68188;SDS011;66299;47.514;19.218;2023-07-16T04:24:38;14.45;;;6.47;;
68188;SDS011;66299;47.514;19.218;2023-07-16T04:27:09;11.35;;;6.20;;
68188;SDS011;66299;47.514;19.218;2023-07-16T04:29:39;17.20;;;5.85;;
68188;SDS011;66299;47.514;19.218;2023-07-16T04:32:14;19.10;;;5.90;;
68188;SDS011;66299;47.514;19.218;2023-07-16T04:34:49;13.55;;;5.90;;
68188;SDS011;66299;47.514;19.218;2023-07-16T04:37:21;13.23;;;5.85;;
68188;SDS011;66299;47.514;19.218;2023-07-16T04:39:52;12.80;;;5.80;;
68188;SDS011;66299;47.514;19.218;2023-07-16T04:42:28;11.38;;;5.93;;
68188;SDS011;66299;47.514;19.218;2023-07-16T04:44:56;11.90;;;5.80;;
68188;SDS011;66299;47.514;19.218;2023-07-16T04:47:31;21.90;;;5.70;;
68188;SDS011;66299;47.514;19.218;2023-07-16T04:50:02;13.30;;;5.70;;
68188;SDS011;66299;47.514;19.218;2023-07-16T04:52:33;16.80;;;5.25;;
68188;SDS011;66299;47.514;19.218;2023-07-16T04:55:08;17.83;;;5.57;;
68188;SDS011;66299;47.514;19.218;2023-07-16T04:57:39;13.97;;;5.43;;
68188;SDS011;66299;47.514;19.218;2023-07-16T05:00:11;12.30;;;5.07;;
68188;SDS011;66299;47.514;19.218;2023-07-16T05:02:43;14.13;;;5.20;;
68188;SDS011;66299;47.514;19.218;2023-07-16T05:05:16;25.80;;;5.47;;
68188;SDS011;66299;47.514;19.218;2023-07-16T05:07:47;14.90;;;5.35;;
68188;SDS011;66299;47.514;19.218;2023-07-16T05:10:18;12.88;;;5.20;;
68188;SDS011;66299;47.514;19.218;2023-07-16T05:12:48;16.75;;;5.45;;
68188;SDS011;66299;47.514;19.218;2023-07-16T05:15:34;12.68;;;4.97;;
68188;SDS011;66299;47.514;19.218;2023-07-16T05:18:04;14.10;;;5.57;;
68188;SDS011;66299;47.514;19.218;2023-07-16T05:20:35;18.85;;;5.60;;
68188;SDS011;66299;47.514;19.218;2023-07-16T05:23:06;14.70;;;5.20;;
68188;SDS011;66299;47.514;19.218;2023-07-16T05:25:45;11.68;;;5.25;;
68188;SDS011;66299;47.514;19.218;2023-07-16T05:28:17;11.30;;;5.25;;
68188;SDS011;66299;47.514;19.218;2023-07-16T05:30:58;10.55;;;5.03;;
68188;SDS011;66299;47.514;19.218;2023-07-16T05:33:30;16.30;;;5.30;;
68188;SDS011;66299;47.514;19.218;2023-07-16T05:36:00;13.23;;;5.65;;
68188;SDS011;66299;47.514;19.218;2023-07-16T05:38:29;15.15;;;5.13;;
68188;SDS011;66299;47.514;19.218;2023-07-16T05:41:03;15.75;;;5.10;;
68188;SDS011;66299;47.514;19.218;2023-07-16T05:43:41;13.48;;;5.18;;
68188;SDS011;66299;47.514;19.218;2023-07-16T05:46:11;11.80;;;4.97;;
68188;SDS011;66299;47.514;19.218;2023-07-16T05:48:42;13.77;;;4.90;;
68188;SDS011;66299;47.514;19.218;2023-07-16T05:51:19;11.15;;;4.95;;
68188;SDS011;66299;47.514;19.218;2023-07-16T05:53:49;11.60;;;4.68;;
68188;SDS011;66299;47.514;19.218;2023-07-16T05:56:21;9.57;;;4.60;;
68188;SDS011;66299;47.514;19.218;2023-07-16T05:58:53;14.35;;;5.00;;
68188;SDS011;66299;47.514;19.218;2023-07-16T06:01:25;10.30;;;4.72;;
68188;SDS011;66299;47.514;19.218;2023-07-16T06:03:55;12.75;;;4.80;;
68188;SDS011;66299;47.514;19.218;2023-07-16T06:06:27;15.10;;;4.40;;
68188;SDS011;66299;47.514;19.218;2023-07-16T06:08:57;13.88;;;4.90;;
68188;SDS011;66299;47.514;19.218;2023-07-16T06:11:30;10.15;;;4.80;;
68188;SDS011;66299;47.514;19.218;2023-07-16T06:14:00;13.15;;;5.13;;
68188;SDS011;66299;47.514;19.218;2023-07-16T06:16:35;13.68;;;4.57;;
68188;SDS011;66299;47.514;19.218;2023-07-16T06:19:09;12.13;;;4.20;;
68188;SDS011;66299;47.514;19.218;2023-07-16T06:21:38;10.15;;;4.57;;
68188;SDS011;66299;47.514;19.218;2023-07-16T06:24:08;13.55;;;4.47;;
68188;SDS011;66299;47.514;19.218;2023-07-16T06:26:40;11.95;;;4.57;;
68188;SDS011;66299;47.514;19.218;2023-07-16T06:29:12;9.65;;;4.43;;
68188;SDS011;66299;47.514;19.218;2023-07-16T06:31:53;9.10;;;4.20;;
68188;SDS011;66299;47.514;19.218;2023-07-16T06:34:26;10.45;;;4.22;;
68188;SDS011;66299;47.514;19.218;2023-07-16T06:36:56;12.13;;;4.15;;
68188;SDS011;66299;47.514;19.218;2023-07-16T06:39:26;10.55;;;4.20;;
68188;SDS011;66299;47.514;19.218;2023-07-16T06:41:59;9.60;;;4.38;;
68188;SDS011;66299;47.514;19.218;2023-07-16T06:44:33;11.43;;;4.30;;
68188;SDS011;66299;47.514;19.218;2023-07-16T06:47:03;10.77;;;4.50;;
68188;SDS011;66299;47.514;19.218;2023-07-16T06:49:39;11.70;;;4.30;;
68188;SDS011;66299;47.514;19.218;2023-07-16T06:52:18;14.55;;;4.35;;
68188;SDS011;66299;47.514;19.218;2023-07-16T06:54:51;13.30;;;4.20;;
68188;SDS011;66299;47.514;19.218;2023-07-16T06:57:22;12.98;;;4.50;;
68188;SDS011;66299;47.514;19.218;2023-07-16T07:02:23;12.68;;;4.55;;
68188;SDS011;66299;47.514;19.218;2023-07-16T07:04:56;15.82;;;4.20;;
68188;SDS011;66299;47.514;19.218;2023-07-16T07:07:26;12.48;;;3.97;;
68188;SDS011;66299;47.514;19.218;2023-07-16T07:10:00;12.75;;;3.88;;
68188;SDS011;66299;47.514;19.218;2023-07-16T07:12:40;12.02;;;4.00;;
68188;SDS011;66299;47.514;19.218;2023-07-16T07:15:09;8.65;;;3.75;;
68188;SDS011;66299;47.514;19.218;2023-07-16T07:17:40;11.80;;;4.30;;
68188;SDS011;66299;47.514;19.218;2023-07-16T07:20:11;12.35;;;4.22;;
68188;SDS011;66299;47.514;19.218;2023-07-16T07:22:47;11.50;;;4.15;;
68188;SDS011;66299;47.514;19.218;2023-07-16T07:25:16;9.88;;;4.10;;
68188;SDS011;66299;47.514;19.218;2023-07-16T07:27:45;14.20;;;4.50;;
68188;SDS011;66299;47.514;19.218;2023-07-16T07:30:15;11.00;;;4.03;;
68188;SDS011;66299;47.514;19.218;2023-07-16T07:32:44;11.60;;;4.20;;
68188;SDS011;66299;47.514;19.218;2023-07-16T07:35:18;10.20;;;3.80;;
68188;SDS011;66299;47.514;19.218;2023-07-16T07:37:51;14.55;;;3.85;;
68188;SDS011;66299;47.514;19.218;2023-07-16T07:40:23;10.57;;;4.00;;
68188;SDS011;66299;47.514;19.218;2023-07-16T07:42:58;10.27;;;4.00;;
68188;SDS011;66299;47.514;19.218;2023-07-16T07:45:28;9.80;;;3.80;;
68188;SDS011;66299;47.514;19.218;2023-07-16T07:47:59;12.00;;;4.13;;
68188;SDS011;66299;47.514;19.218;2023-07-16T07:50:42;14.07;;;4.30;;
68188;SDS011;66299;47.514;19.218;2023-07-16T07:53:19;13.15;;;4.10;;
68188;SDS011;66299;47.514;19.218;2023-07-16T07:55:50;17.40;;;4.10;;
68188;SDS011;66299;47.514;19.218;2023-07-16T07:58:22;15.70;;;4.10;;
68188;SDS011;66299;47.514;19.218;2023-07-16T08:00:52;9.18;;;3.90;;
68188;SDS011;66299;47.514;19.218;2023-07-16T08:03:24;13.02;;;3.90;;
68188;SDS011;66299;47.514;19.218;2023-07-16T08:05:54;14.63;;;4.13;;
68188;SDS011;66299;47.514;19.218;2023-07-16T08:08:22;16.02;;;3.83;;
68188;SDS011;66299;47.514;19.218;2023-07-16T08:10:56;11.55;;;3.90;;
68188;SDS011;66299;47.514;19.218;2023-07-16T08:13:25;13.43;;;3.90;;
68188;SDS011;66299;47.514;19.218;2023-07-16T08:15:58;10.68;;;4.00;;
68188;SDS011;66299;47.514;19.218;2023-07-16T08:18:30;12.37;;;4.00;;
68188;SDS011;66299;47.514;19.218;2023-07-16T08:21:01;10.85;;;4.28;;
68188;SDS011;66299;47.514;19.218;2023-07-16T08:23:34;9.93;;;4.03;;
68188;SDS011;66299;47.514;19.218;2023-07-16T08:26:04;11.38;;;3.80;;
68188;SDS011;66299;47.514;19.218;2023-07-16T08:28:38;14.82;;;3.85;;
68188;SDS011;66299;47.514;19.218;2023-07-16T08:31:09;11.35;;;4.00;;
68188;SDS011;66299;47.514;19.218;2023-07-16T08:33:40;13.10;;;4.50;;
68188;SDS011;66299;47.514;19.218;2023-07-16T08:36:19;12.57;;;3.80;;
68188;SDS011;66299;47.514;19.218;2023-07-16T08:38:50;9.68;;;3.90;;
68188;SDS011;66299;47.514;19.218;2023-07-16T08:41:21;10.47;;;4.00;;
68188;SDS011;66299;47.514;19.218;2023-07-16T08:43:56;12.65;;;4.05;;
68188;SDS011;66299;47.514;19.218;2023-07-16T08:48:57;12.70;;;3.90;;
68188;SDS011;66299;47.514;19.218;2023-07-16T08:51:30;11.73;;;4.10;;
68188;SDS011;66299;47.514;19.218;2023-07-16T08:53:59;9.98;;;4.00;;
68188;SDS011;66299;47.514;19.218;2023-07-16T08:56:33;11.05;;;3.90;;
68188;SDS011;66299;47.514;19.218;2023-07-16T08:59:02;10.18;;;4.00;;
68188;SDS011;66299;47.514;19.218;2023-07-16T09:01:31;12.70;;;4.32;;
68188;SDS011;66299;47.514;19.218;2023-07-16T09:04:06;11.40;;;4.80;;
68188;SDS011;66299;47.514;19.218;2023-07-16T09:06:41;13.38;;;4.75;;
68188;SDS011;66299;47.514;19.218;2023-07-16T09:09:10;14.40;;;4.75;;
68188;SDS011;66299;47.514;19.218;2023-07-16T09:11:47;14.48;;;4.82;;
68188;SDS011;66299;47.514;19.218;2023-07-16T09:14:19;10.85;;;4.90;;
68188;SDS011;66299;47.514;19.218;2023-07-16T09:16:51;12.13;;;4.75;;
68188;SDS011;66299;47.514;19.218;2023-07-16T09:19:21;14.70;;;4.80;;
68188;SDS011;66299;47.514;19.218;2023-07-16T09:21:51;13.07;;;5.25;;
68188;SDS011;66299;47.514;19.218;2023-07-16T09:24:20;12.00;;;4.97;;
68188;SDS011;66299;47.514;19.218;2023-07-16T09:26:48;14.27;;;5.20;;
68188;SDS011;66299;47.514;19.218;2023-07-16T09:29:20;12.18;;;5.13;;
68188;SDS011;66299;47.514;19.218;2023-07-16T09:31:56;14.05;;;5.05;;
68188;SDS011;66299;47.514;19.218;2023-07-16T09:34:27;11.45;;;5.00;;
68188;SDS011;66299;47.514;19.218;2023-07-16T09:37:06;12.80;;;5.18;;
68188;SDS011;66299;47.514;19.218;2023-07-16T09:39:37;16.05;;;5.13;;
68188;SDS011;66299;47.514;19.218;2023-07-16T09:42:13;15.00;;;5.18;;
68188;SDS011;66299;47.514;19.218;2023-07-16T09:44:47;13.82;;;5.60;;
68188;SDS011;66299;47.514;19.218;2023-07-16T09:47:17;16.33;;;5.32;;
68188;SDS011;66299;47.514;19.218;2023-07-16T09:49:49;12.80;;;5.03;;
68188;SDS011;66299;47.514;19.218;2023-07-16T09:52:24;11.02;;;4.97;;
68188;SDS011;66299;47.514;19.218;2023-07-16T09:54:55;15.98;;;4.85;;
68188;SDS011;66299;47.514;19.218;2023-07-16T09:57:32;13.00;;;4.90;;
68188;SDS011;66299;47.514;19.218;2023-07-16T10:00:07;13.07;;;5.13;;
68188;SDS011;66299;47.514;19.218;2023-07-16T10:02:40;12.25;;;4.88;;
68188;SDS011;66299;47.514;19.218;2023-07-16T10:05:18;11.35;;;5.10;;
68188;SDS011;66299;47.514;19.218;2023-07-16T10:07:58;16.33;;;6.03;;
68188;SDS011;66299;47.514;19.218;2023-07-16T10:10:39;14.82;;;6.30;;
68188;SDS011;66299;47.514;19.218;2023-07-16T10:13:12;17.17;;;6.60;;
68188;SDS011;66299;47.514;19.218;2023-07-16T10:15:52;15.43;;;6.30;;
68188;SDS011;66299;47.514;19.218;2023-07-16T10:18:26;16.45;;;6.65;;
68188;SDS011;66299;47.514;19.218;2023-07-16T10:20:59;14.93;;;7.03;;
68188;SDS011;66299;47.514;19.218;2023-07-16T10:23:38;23.85;;;6.72;;
68188;SDS011;66299;47.514;19.218;2023-07-16T10:26:09;14.20;;;6.85;;
68188;SDS011;66299;47.514;19.218;2023-07-16T10:28:45;16.85;;;7.40;;
68188;SDS011;66299;47.514;19.218;2023-07-16T10:31:17;16.63;;;6.75;;
68188;SDS011;66299;47.514;19.218;2023-07-16T10:33:58;15.57;;;7.03;;
68188;SDS011;66299;47.514;19.218;2023-07-16T10:36:29;16.10;;;6.68;;
68188;SDS011;66299;47.514;19.218;2023-07-16T10:39:04;12.07;;;6.45;;
68188;SDS011;66299;47.514;19.218;2023-07-16T10:41:33;16.33;;;6.85;;
68188;SDS011;66299;47.514;19.218;2023-07-16T10:44:04;14.25;;;6.90;;
68188;SDS011;66299;47.514;19.218;2023-07-16T10:46:36;20.85;;;7.40;;
68188;SDS011;66299;47.514;19.218;2023-07-16T10:49:08;18.98;;;6.93;;
68188;SDS011;66299;47.514;19.218;2023-07-16T10:51:37;16.85;;;6.93;;
68188;SDS011;66299;47.514;19.218;2023-07-16T10:54:10;16.60;;;7.38;;
68188;SDS011;66299;47.514;19.218;2023-07-16T10:56:41;13.13;;;7.47;;
68188;SDS011;66299;47.514;19.218;2023-07-16T10:59:11;16.60;;;7.32;;
68188;SDS011;66299;47.514;19.218;2023-07-16T11:01:40;17.50;;;7.82;;
68188;SDS011;66299;47.514;19.218;2023-07-16T11:04:11;15.43;;;6.97;;
68188;SDS011;66299;47.514;19.218;2023-07-16T11:06:49;13.40;;;7.20;;
68188;SDS011;66299;47.514;19.218;2023-07-16T11:09:23;15.73;;;7.28;;
68188;SDS011;66299;47.514;19.218;2023-07-16T11:11:55;19.45;;;7.53;;
68188;SDS011;66299;47.514;19.218;2023-07-16T11:14:36;20.95;;;7.53;;
68188;SDS011;66299;47.514;19.218;2023-07-16T11:17:07;13.68;;;7.40;;
68188;SDS011;66299;47.514;19.218;2023-07-16T11:19:38;16.70;;;7.50;;
68188;SDS011;66299;47.514;19.218;2023-07-16T11:22:13;17.77;;;7.25;;
68188;SDS011;66299;47.514;19.218;2023-07-16T11:24:44;15.88;;;7.28;;
68188;SDS011;66299;47.514;19.218;2023-07-16T11:27:18;13.18;;;6.60;;
68188;SDS011;66299;47.514;19.218;2023-07-16T11:29:48;12.57;;;6.40;;
68188;SDS011;66299;47.514;19.218;2023-07-16T11:32:27;14.52;;;6.65;;
68188;SDS011;66299;47.514;19.218;2023-07-16T11:34:59;13.30;;;6.30;;
68188;SDS011;66299;47.514;19.218;2023-07-16T11:40:05;13.55;;;6.35;;
68188;SDS011;66299;47.514;19.218;2023-07-16T11:42:36;17.75;;;6.45;;
68188;SDS011;66299;47.514;19.218;2023-07-16T11:45:15;12.18;;;5.78;;
68188;SDS011;66299;47.514;19.218;2023-07-16T11:47:46;10.80;;;5.60;;
68188;SDS011;66299;47.514;19.218;2023-07-16T11:50:24;14.32;;;5.63;;
68188;SDS011;66299;47.514;19.218;2023-07-16T11:52:58;12.48;;;5.50;;
68188;SDS011;66299;47.514;19.218;2023-07-16T11:55:30;19.67;;;6.00;;
68188;SDS011;66299;47.514;19.218;2023-07-16T11:58:00;13.90;;;5.63;;
68188;SDS011;66299;47.514;19.218;2023-07-16T12:00:30;15.63;;;6.03;;
68188;SDS011;66299;47.514;19.218;2023-07-16T12:03:02;13.27;;;5.40;;
68188;SDS011;66299;47.514;19.218;2023-07-16T12:05:34;13.00;;;5.28;;
68188;SDS011;66299;47.514;19.218;2023-07-16T12:08:19;14.63;;;5.00;;
68188;SDS011;66299;47.514;19.218;2023-07-16T12:10:50;13.05;;;4.90;;
68188;SDS011;66299;47.514;19.218;2023-07-16T12:15:49;15.63;;;5.27;;
68188;SDS011;66299;47.514;19.218;2023-07-16T12:18:19;11.15;;;4.68;;
68188;SDS011;66299;47.514;19.218;2023-07-16T12:20:48;12.93;;;5.18;;
68188;SDS011;66299;47.514;19.218;2023-07-16T12:23:18;14.18;;;5.05;;
68188;SDS011;66299;47.514;19.218;2023-07-16T12:25:47;12.60;;;5.40;;
68188;SDS011;66299;47.514;19.218;2023-07-16T12:28:20;12.88;;;5.90;;
68188;SDS011;66299;47.514;19.218;2023-07-16T12:30:49;17.47;;;5.70;;
68188;SDS011;66299;47.514;19.218;2023-07-16T12:33:19;12.05;;;5.00;;
68188;SDS011;66299;47.514;19.218;2023-07-16T12:35:48;12.57;;;5.45;;
68188;SDS011;66299;47.514;19.218;2023-07-16T12:38:19;14.55;;;5.80;;
68188;SDS011;66299;47.514;19.218;2023-07-16T12:40:54;12.60;;;5.75;;
68188;SDS011;66299;47.514;19.218;2023-07-16T12:43:23;13.75;;;5.43;;
68188;SDS011;66299;47.514;19.218;2023-07-16T12:45:54;12.73;;;4.80;;
68188;SDS011;66299;47.514;19.218;2023-07-16T12:48:23;12.35;;;4.40;;
68188;SDS011;66299;47.514;19.218;2023-07-16T12:50:52;18.23;;;4.80;;
68188;SDS011;66299;47.514;19.218;2023-07-16T12:53:20;13.45;;;4.45;;
68188;SDS011;66299;47.514;19.218;2023-07-16T12:55:52;12.98;;;4.90;;
68188;SDS011;66299;47.514;19.218;2023-07-16T13:00:49;14.05;;;5.68;;
68188;SDS011;66299;47.514;19.218;2023-07-16T13:03:18;14.57;;;5.80;;
68188;SDS011;66299;47.514;19.218;2023-07-16T13:05:49;11.85;;;4.72;;
68188;SDS011;66299;47.514;19.218;2023-07-16T13:08:21;14.20;;;4.97;;
68188;SDS011;66299;47.514;19.218;2023-07-16T13:10:50;12.20;;;4.70;;
68188;SDS011;66299;47.514;19.218;2023-07-16T13:13:27;14.05;;;4.85;;
68188;SDS011;66299;47.514;19.218;2023-07-16T13:15:56;12.48;;;4.60;;
68188;SDS011;66299;47.514;19.218;2023-07-16T13:18:30;12.38;;;5.15;;
68188;SDS011;66299;47.514;19.218;2023-07-16T13:21:02;15.80;;;4.90;;
68188;SDS011;66299;47.514;19.218;2023-07-16T13:23:33;16.42;;;5.28;;
68188;SDS011;66299;47.514;19.218;2023-07-16T13:26:06;13.30;;;5.45;;
68188;SDS011;66299;47.514;19.218;2023-07-16T13:28:36;11.68;;;5.35;;
68188;SDS011;66299;47.514;19.218;2023-07-16T13:31:11;12.20;;;5.90;;
68188;SDS011;66299;47.514;19.218;2023-07-16T13:33:45;12.90;;;5.95;;
68188;SDS011;66299;47.514;19.218;2023-07-16T13:36:14;13.82;;;5.80;;
68188;SDS011;66299;47.514;19.218;2023-07-16T13:38:46;15.38;;;5.78;;
68188;SDS011;66299;47.514;19.218;2023-07-16T13:41:18;13.23;;;5.60;;
68188;SDS011;66299;47.514;19.218;2023-07-16T13:43:51;14.15;;;5.40;;
68188;SDS011;66299;47.514;19.218;2023-07-16T13:46:24;14.95;;;5.05;;
68188;SDS011;66299;47.514;19.218;2023-07-16T13:48:56;11.75;;;4.90;;
68188;SDS011;66299;47.514;19.218;2023-07-16T13:51:27;13.35;;;4.80;;
68188;SDS011;66299;47.514;19.218;2023-07-16T13:53:56;17.67;;;4.75;;
68188;SDS011;66299;47.514;19.218;2023-07-16T13:56:26;14.35;;;5.53;;
68188;SDS011;66299;47.514;19.218;2023-07-16T13:59:01;16.27;;;5.40;;
68188;SDS011;66299;47.514;19.218;2023-07-16T14:01:30;12.38;;;5.20;;
68188;SDS011;66299;47.514;19.218;2023-07-16T14:03:59;14.32;;;5.00;;
68188;SDS011;66299;47.514;19.218;2023-07-16T14:06:33;14.15;;;5.05;;
68188;SDS011;66299;47.514;19.218;2023-07-16T14:09:02;11.60;;;4.93;;
68188;SDS011;66299;47.514;19.218;2023-07-16T14:11:37;12.80;;;4.88;;
68188;SDS011;66299;47.514;19.218;2023-07-16T14:14:08;16.90;;;5.47;;
68188;SDS011;66299;47.514;19.218;2023-07-16T14:16:39;15.93;;;5.00;;
68188;SDS011;66299;47.514;19.218;2023-07-16T14:19:14;13.30;;;4.80;;
68188;SDS011;66299;47.514;19.218;2023-07-16T14:21:48;12.85;;;5.13;;
68188;SDS011;66299;47.514;19.218;2023-07-16T14:24:18;13.77;;;4.85;;
68188;SDS011;66299;47.514;19.218;2023-07-16T14:26:47;12.57;;;4.60;;
68188;SDS011;66299;47.514;19.218;2023-07-16T14:29:21;13.75;;;4.57;;
68188;SDS011;66299;47.514;19.218;2023-07-16T14:31:56;15.82;;;4.85;;
68188;SDS011;66299;47.514;19.218;2023-07-16T14:34:28;12.55;;;4.80;;
68188;SDS011;66299;47.514;19.218;2023-07-16T14:36:56;12.00;;;4.75;;
68188;SDS011;66299;47.514;19.218;2023-07-16T14:39:25;14.35;;;5.00;;
68188;SDS011;66299;47.514;19.218;2023-07-16T14:41:55;14.63;;;5.07;;
68188;SDS011;66299;47.514;19.218;2023-07-16T14:44:27;13.77;;;4.60;;
68188;SDS011;66299;47.514;19.218;2023-07-16T14:46:56;14.30;;;4.53;;
68188;SDS011;66299;47.514;19.218;2023-07-16T14:49:26;17.42;;;4.85;;
68188;SDS011;66299;47.514;19.218;2023-07-16T14:51:57;14.05;;;4.80;;
68188;SDS011;66299;47.514;19.218;2023-07-16T14:56:57;13.05;;;4.68;;
68188;SDS011;66299;47.514;19.218;2023-07-16T14:59:32;14.95;;;4.78;;
68188;SDS011;66299;47.514;19.218;2023-07-16T15:02:02;14.43;;;5.03;;
68188;SDS011;66299;47.514;19.218;2023-07-16T15:04:31;12.10;;;4.80;;
68188;SDS011;66299;47.514;19.218;2023-07-16T15:07:00;10.48;;;4.65;;